Time;durP1;ratioP1;P1;durP2;ratioP2;P2;SDS_P1;SDS_P2;PMS_P1;PMS_P2;Temp;Humidity;BMP_temperature;BMP_pressure;BME280_temperature;BME280_humidity;BME280_pressure;Samples;Min_cycle;Max_cycle;Signal;HPM_P1;HPM_P2
2023/12/02 00:01:02;;;;;;;0.30;0.30;;;;;;;;;;5049244;28;20262;-73
2023/12/02 00:03:30;;;;;;;0.30;0.30;;;;;;;;;;5056252;28;20213;-73
2023/12/02 00:05:56;;;;;;;0.30;0.30;;;;;;;;;;5049321;28;20251;-73
2023/12/02 00:08:23;;;;;;;0.30;0.30;;;;;;;;;;5055912;28;20472;-73
2023/12/02 00:10:52;;;;;;;0.30;0.30;;;;;;;;;;5050363;28;20420;-74
2023/12/02 00:13:18;;;;;;;0.30;0.30;;;;;;;;;;5055493;28;20432;-73
2023/12/02 00:15:45;;;;;;;0.30;0.30;;;;;;;;;;5051147;28;20450;-73
2023/12/02 00:18:11;;;;;;;0.30;0.30;;;;;;;;;;5054142;28;20410;-73
2023/12/02 00:20:39;;;;;;;0.30;0.30;;;;;;;;;;5051936;28;20240;-74
2023/12/02 00:23:05;;;;;;;0.30;0.30;;;;;;;;;;5053183;28;20236;-73
2023/12/02 00:25:31;;;;;;;0.30;0.30;;;;;;;;;;5053148;28;20509;-73
2023/12/02 00:27:58;;;;;;;0.30;0.30;;;;;;;;;;5052076;28;20213;-73
2023/12/02 00:30:24;;;;;;;0.33;0.33;;;;;;;;;;5054013;28;20206;-73
2023/12/02 00:32:50;;;;;;;0.30;0.30;;;;;;;;;;5051250;28;20196;-73
2023/12/02 00:35:17;;;;;;;0.30;0.30;;;;;;;;;;5054770;28;20234;-73
2023/12/02 00:37:44;;;;;;;0.30;0.30;;;;;;;;;;5049604;28;20261;-73
2023/12/02 00:40:11;;;;;;;0.30;0.30;;;;;;;;;;5055665;28;20262;-74
2023/12/02 00:42:37;;;;;;;0.30;0.30;;;;;;;;;;5048946;28;20229;-73
2023/12/02 00:45:05;;;;;;;0.30;0.30;;;;;;;;;;5066180;28;20391;-73
2023/12/02 00:47:31;;;;;;;0.30;0.30;;;;;;;;;;5037895;28;20237;-73
2023/12/02 00:49:57;;;;;;;0.30;0.30;;;;;;;;;;5066117;28;20231;-74
2023/12/02 00:52:24;;;;;;;0.30;0.30;;;;;;;;;;5037778;28;20247;-73
2023/12/02 00:54:52;;;;;;;0.30;0.30;;;;;;;;;;5065952;28;20213;-73
2023/12/02 00:57:18;;;;;;;0.30;0.30;;;;;;;;;;5037717;28;20283;-73
2023/12/02 00:59:45;;;;;;;0.30;0.30;;;;;;;;;;5066006;28;20495;-72
2023/12/02 01:02:11;;;;;;;0.27;0.27;;;;;;;;;;5037546;28;20242;-73
2023/12/02 01:04:37;;;;;;;0.30;0.30;;;;;;;;;;5065753;28;20307;-73
2023/12/02 01:07:04;;;;;;;0.30;0.30;;;;;;;;;;5037954;28;20305;-73
2023/12/02 01:09:30;;;;;;;0.30;0.30;;;;;;;;;;5064903;28;20264;-73
2023/12/02 01:11:58;;;;;;;0.30;0.30;;;;;;;;;;5039539;28;20246;-73
2023/12/02 01:14:25;;;;;;;0.30;0.30;;;;;;;;;;5063882;28;20282;-74
2023/12/02 01:16:51;;;;;;;0.30;0.30;;;;;;;;;;5040165;28;20439;-74
2023/12/02 01:19:18;;;;;;;0.30;0.30;;;;;;;;;;5062828;28;20238;-74
2023/12/02 01:21:44;;;;;;;0.30;0.30;;;;;;;;;;5040937;28;20245;-73
2023/12/02 01:24:11;;;;;;;0.30;0.30;;;;;;;;;;5061812;28;20202;-73
2023/12/02 01:26:37;;;;;;;0.30;0.30;;;;;;;;;;5041767;28;20269;-73
2023/12/02 01:29:04;;;;;;;0.30;0.30;;;;;;;;;;5060443;28;20293;-74
2023/12/02 01:31:30;;;;;;;0.30;0.30;;;;;;;;;;5042790;28;20269;-73
2023/12/02 01:33:56;;;;;;;0.40;0.40;;;;;;;;;;5059554;28;20198;-74
2023/12/02 01:36:23;;;;;;;0.40;0.40;;;;;;;;;;5043854;28;20261;-73
2023/12/02 01:38:49;;;;;;;0.30;0.30;;;;;;;;;;5058061;28;20242;-73
2023/12/02 01:41:15;;;;;;;0.30;0.30;;;;;;;;;;5044728;28;20314;-73
2023/12/02 01:43:42;;;;;;;0.30;0.30;;;;;;;;;;5056974;28;20212;-73
2023/12/02 01:46:10;;;;;;;0.30;0.30;;;;;;;;;;5045828;28;20253;-74
2023/12/02 01:48:36;;;;;;;0.30;0.30;;;;;;;;;;5055677;28;20484;-74
2023/12/02 01:51:03;;;;;;;0.30;0.30;;;;;;;;;;5046595;28;20252;-73
2023/12/02 01:53:30;;;;;;;0.30;0.30;;;;;;;;;;5055288;28;20391;-73
2023/12/02 01:55:56;;;;;;;0.40;0.40;;;;;;;;;;5047441;28;20268;-73
2023/12/02 01:58:22;;;;;;;0.30;0.30;;;;;;;;;;5053986;28;20227;-74
2023/12/02 02:00:49;;;;;;;0.30;0.30;;;;;;;;;;5048569;28;20452;-73
2023/12/02 02:03:16;;;;;;;0.30;0.30;;;;;;;;;;5052558;28;20466;-73
2023/12/02 02:05:43;;;;;;;0.33;0.33;;;;;;;;;;5049273;28;20309;-73
2023/12/02 02:08:10;;;;;;;0.30;0.30;;;;;;;;;;5051752;28;20248;-73
2023/12/02 02:10:36;;;;;;;0.30;0.30;;;;;;;;;;5050010;28;20252;-74
2023/12/02 02:13:03;;;;;;;0.30;0.30;;;;;;;;;;5051014;28;20200;-73
2023/12/02 02:15:29;;;;;;;0.30;0.30;;;;;;;;;;5051277;28;20253;-73
2023/12/02 02:17:55;;;;;;;0.30;0.30;;;;;;;;;;5049223;28;20231;-74
2023/12/02 02:20:23;;;;;;;0.30;0.30;;;;;;;;;;5052233;28;20259;-73
2023/12/02 02:22:51;;;;;;;0.30;0.30;;;;;;;;;;5048908;28;20226;-73
2023/12/02 02:25:17;;;;;;;0.30;0.30;;;;;;;;;;5052718;28;20215;-73
2023/12/02 02:27:44;;;;;;;0.30;0.30;;;;;;;;;;5047716;28;20195;-73
2023/12/02 02:30:11;;;;;;;0.40;0.40;;;;;;;;;;5053501;28;20412;-74
2023/12/02 02:32:37;;;;;;;0.30;0.30;;;;;;;;;;5046697;28;20267;-74
2023/12/02 02:35:04;;;;;;;0.30;0.30;;;;;;;;;;5063576;28;20268;-74
2023/12/02 02:37:30;;;;;;;0.30;0.30;;;;;;;;;;5035963;28;20273;-74
2023/12/02 02:39:58;;;;;;;0.37;0.37;;;;;;;;;;5063982;28;20223;-74
2023/12/02 02:42:24;;;;;;;0.37;0.37;;;;;;;;;;5035822;28;20262;-73
2023/12/02 02:44:51;;;;;;;0.30;0.30;;;;;;;;;;5063927;28;20238;-73
2023/12/02 02:47:17;;;;;;;0.40;0.40;;;;;;;;;;5035777;28;20240;-73
2023/12/02 02:49:44;;;;;;;0.30;0.30;;;;;;;;;;5063355;28;20265;-74
2023/12/02 02:52:10;;;;;;;0.40;0.40;;;;;;;;;;5035540;28;20608;-73
2023/12/02 02:54:36;;;;;;;0.30;0.30;;;;;;;;;;5063932;28;20441;-74
2023/12/02 02:57:04;;;;;;;0.30;0.30;;;;;;;;;;5036731;28;20652;-73
2023/12/02 02:59:31;;;;;;;0.30;0.30;;;;;;;;;;5062579;28;20201;-73
2023/12/02 03:01:57;;;;;;;0.40;0.40;;;;;;;;;;5037128;28;20301;-73
2023/12/02 03:04:24;;;;;;;0.30;0.30;;;;;;;;;;5062142;28;20390;-74
2023/12/02 03:06:50;;;;;;;0.30;0.30;;;;;;;;;;5038345;28;20260;-73
2023/12/02 03:09:17;;;;;;;0.30;0.30;;;;;;;;;;5060927;28;20471;-73
2023/12/02 03:11:44;;;;;;;0.30;0.30;;;;;;;;;;5039507;28;20240;-73
2023/12/02 03:14:11;;;;;;;0.30;0.30;;;;;;;;;;5059580;28;20204;-73
2023/12/02 03:16:38;;;;;;;0.30;0.30;;;;;;;;;;5039876;28;20244;-74
2023/12/02 03:19:04;;;;;;;0.30;0.30;;;;;;;;;;5058767;28;20227;-74
2023/12/02 03:21:31;;;;;;;0.40;0.40;;;;;;;;;;5040992;28;20258;-73
2023/12/02 03:23:57;;;;;;;0.40;0.40;;;;;;;;;;5057739;28;20211;-73
2023/12/02 03:26:24;;;;;;;0.30;0.30;;;;;;;;;;5042031;28;20260;-74
2023/12/02 03:28:50;;;;;;;0.40;0.40;;;;;;;;;;5057986;28;20292;-73
2023/12/02 03:31:18;;;;;;;0.30;0.30;;;;;;;;;;5046846;28;20244;-74
2023/12/02 03:33:45;;;;;;;0.30;0.30;;;;;;;;;;5060060;28;20237;-74
2023/12/02 03:36:11;;;;;;;0.30;0.30;;;;;;;;;;5047597;28;20263;-73
2023/12/02 03:38:38;;;;;;;0.30;0.30;;;;;;;;;;5058834;28;20269;-74
2023/12/02 03:41:05;;;;;;;0.40;0.40;;;;;;;;;;5048501;28;20289;-73
2023/12/02 03:43:31;;;;;;;0.30;0.30;;;;;;;;;;5057603;28;20267;-74
2023/12/02 03:45:59;;;;;;;0.30;0.30;;;;;;;;;;5049576;28;20243;-74
2023/12/02 03:48:27;;;;;;;0.30;0.30;;;;;;;;;;5056927;28;20211;-73
2023/12/02 03:50:53;;;;;;;0.30;0.30;;;;;;;;;;5050155;28;20236;-74
2023/12/02 03:53:20;;;;;;;0.30;0.30;;;;;;;;;;5055902;28;20194;-74
2023/12/02 03:55:46;;;;;;;0.30;0.30;;;;;;;;;;5051231;28;20263;-73
2023/12/02 03:58:13;;;;;;;0.30;0.30;;;;;;;;;;5054630;28;20200;-73
2023/12/02 04:00:39;;;;;;;0.30;0.30;;;;;;;;;;5052110;28;20243;-74
2023/12/02 04:03:05;;;;;;;0.30;0.30;;;;;;;;;;5053338;28;20238;-73
2023/12/02 04:05:33;;;;;;;0.30;0.30;;;;;;;;;;5053255;28;20308;-73
2023/12/02 04:07:59;;;;;;;0.30;0.30;;;;;;;;;;5052584;28;20215;-73
2023/12/02 04:10:26;;;;;;;0.30;0.30;;;;;;;;;;5053948;28;20234;-74
2023/12/02 04:12:53;;;;;;;0.67;0.67;;;;;;;;;;5051597;28;20196;-74
2023/12/02 04:15:19;;;;;;;0.30;0.30;;;;;;;;;;5054881;28;20233;-73
2023/12/02 04:17:45;;;;;;;0.30;0.30;;;;;;;;;;5050798;28;20235;-73
2023/12/02 04:20:15;;;;;;;0.30;0.30;;;;;;;;;;5055922;28;20231;-74
2023/12/02 04:22:43;;;;;;;0.30;0.30;;;;;;;;;;5049989;28;20223;-73
2023/12/02 04:25:10;;;;;;;0.30;0.30;;;;;;;;;;5061717;28;20400;-74
2023/12/02 04:27:36;;;;;;;0.33;0.33;;;;;;;;;;5048625;28;20215;-73
2023/12/02 04:30:04;;;;;;;0.30;0.30;;;;;;;;;;5066440;28;20286;-74
2023/12/02 04:32:30;;;;;;;0.30;0.30;;;;;;;;;;5038207;28;20481;-73
2023/12/02 04:34:56;;;;;;;0.30;0.30;;;;;;;;;;5066460;28;20402;-73
2023/12/02 04:37:24;;;;;;;0.30;0.30;;;;;;;;;;5038099;28;20245;-74
2023/12/02 04:39:51;;;;;;;0.30;0.30;;;;;;;;;;5066182;28;20232;-73
2023/12/02 04:42:18;;;;;;;0.30;0.30;;;;;;;;;;5037628;28;20238;-74
2023/12/02 04:44:44;;;;;;;0.30;0.30;;;;;;;;;;5066293;28;20205;-73
2023/12/02 04:47:11;;;;;;;0.30;0.30;;;;;;;;;;5037828;28;20312;-73
2023/12/02 04:49:37;;;;;;;0.30;0.30;;;;;;;;;;5065961;28;20231;-73
2023/12/02 04:52:04;;;;;;;0.30;0.30;;;;;;;;;;5038813;28;20245;-73
2023/12/02 04:54:31;;;;;;;0.30;0.30;;;;;;;;;;5065228;28;20205;-73
2023/12/02 04:56:59;;;;;;;0.30;0.30;;;;;;;;;;5039553;28;20260;-73
2023/12/02 04:59:25;;;;;;;0.30;0.30;;;;;;;;;;5064102;28;20213;-74
2023/12/02 05:01:51;;;;;;;0.30;0.30;;;;;;;;;;5040459;28;20256;-73
2023/12/02 05:04:18;;;;;;;0.30;0.30;;;;;;;;;;5062590;28;20271;-73
2023/12/02 05:06:45;;;;;;;0.30;0.30;;;;;;;;;;5041087;28;20260;-73
2023/12/02 05:09:11;;;;;;;0.30;0.30;;;;;;;;;;5061925;28;20253;-73
2023/12/02 05:11:37;;;;;;;0.30;0.30;;;;;;;;;;5041968;28;20377;-73
2023/12/02 05:14:06;;;;;;;0.30;0.30;;;;;;;;;;5061141;28;20204;-73
2023/12/02 05:16:32;;;;;;;0.30;0.30;;;;;;;;;;5042696;28;20240;-74
2023/12/02 05:18:59;;;;;;;0.30;0.30;;;;;;;;;;5060133;28;20219;-73
2023/12/02 05:21:25;;;;;;;0.30;0.30;;;;;;;;;;5043809;28;20298;-74
2023/12/02 05:23:51;;;;;;;0.30;0.30;;;;;;;;;;5059003;28;20275;-73
2023/12/02 05:26:18;;;;;;;0.40;0.40;;;;;;;;;;5044677;28;20247;-73
2023/12/02 05:28:44;;;;;;;0.30;0.30;;;;;;;;;;5057448;28;20246;-74
2023/12/02 05:31:12;;;;;;;0.30;0.30;;;;;;;;;;5045563;28;20593;-73
2023/12/02 05:33:38;;;;;;;0.30;0.30;;;;;;;;;;5056867;28;20389;-73
2023/12/02 05:36:05;;;;;;;0.30;0.30;;;;;;;;;;5046497;28;20271;-73
2023/12/02 05:38:31;;;;;;;0.30;0.30;;;;;;;;;;5055535;28;20198;-73
2023/12/02 05:40:58;;;;;;;0.30;0.30;;;;;;;;;;5047422;28;20242;-74
2023/12/02 05:43:24;;;;;;;0.37;0.37;;;;;;;;;;5054331;28;20199;-73
2023/12/02 05:45:50;;;;;;;0.30;0.30;;;;;;;;;;5048372;28;20246;-73
2023/12/02 05:48:18;;;;;;;0.30;0.30;;;;;;;;;;5053064;28;20223;-73
2023/12/02 05:50:45;;;;;;;0.30;0.30;;;;;;;;;;5049224;28;20279;-72
2023/12/02 05:53:11;;;;;;;0.30;0.30;;;;;;;;;;5051480;28;20236;-73
2023/12/02 05:55:37;;;;;;;0.30;0.30;;;;;;;;;;5050045;28;20272;-73
2023/12/02 05:58:04;;;;;;;0.30;0.30;;;;;;;;;;5051427;28;20425;-73
2023/12/02 06:00:30;;;;;;;0.30;0.30;;;;;;;;;;5051840;28;22603;-74
2023/12/02 06:02:57;;;;;;;0.30;0.30;;;;;;;;;;5049607;28;20212;-74
2023/12/02 06:05:25;;;;;;;0.30;0.30;;;;;;;;;;5052330;28;20244;-73
2023/12/02 06:07:51;;;;;;;0.30;0.30;;;;;;;;;;5049288;28;20255;-73
2023/12/02 06:10:18;;;;;;;0.30;0.30;;;;;;;;;;5052903;28;20519;-73
2023/12/02 06:12:44;;;;;;;0.30;0.30;;;;;;;;;;5048340;28;20196;-73
2023/12/02 06:15:11;;;;;;;0.30;0.30;;;;;;;;;;5054017;28;20275;-73
2023/12/02 06:17:37;;;;;;;0.30;0.30;;;;;;;;;;5046909;28;20204;-73
2023/12/02 06:20:06;;;;;;;0.30;0.30;;;;;;;;;;5063841;28;20229;-73
2023/12/02 06:22:33;;;;;;;0.30;0.30;;;;;;;;;;5036137;28;20282;-73
2023/12/02 06:25:00;;;;;;;0.30;0.30;;;;;;;;;;5064356;28;20209;-74
2023/12/02 06:27:26;;;;;;;0.30;0.30;;;;;;;;;;5036060;28;20243;-73
2023/12/02 06:29:52;;;;;;;0.40;0.40;;;;;;;;;;5063991;28;20285;-73
2023/12/02 06:32:19;;;;;;;0.30;0.30;;;;;;;;;;5035949;28;20315;-73
2023/12/02 06:34:46;;;;;;;0.30;0.30;;;;;;;;;;5064303;28;20209;-73
2023/12/02 06:37:12;;;;;;;0.30;0.30;;;;;;;;;;5035790;28;20303;-73
2023/12/02 06:39:40;;;;;;;0.30;0.30;;;;;;;;;;5063948;28;20318;-73
2023/12/02 06:42:06;;;;;;;0.30;0.30;;;;;;;;;;5036128;28;20308;-73
2023/12/02 06:44:33;;;;;;;0.30;0.30;;;;;;;;;;5063416;28;20256;-73
2023/12/02 06:46:59;;;;;;;0.30;0.30;;;;;;;;;;5037098;28;20240;-73
2023/12/02 06:49:25;;;;;;;0.30;0.30;;;;;;;;;;5062527;28;20204;-74
2023/12/02 06:51:52;;;;;;;0.30;0.30;;;;;;;;;;5038230;28;20508;-73
2023/12/02 06:54:18;;;;;;;0.30;0.30;;;;;;;;;;5061457;28;20205;-73
2023/12/02 06:56:46;;;;;;;0.30;0.30;;;;;;;;;;5039125;28;20278;-73
2023/12/02 06:59:13;;;;;;;0.30;0.30;;;;;;;;;;5060470;28;20247;-73
2023/12/02 07:01:40;;;;;;;0.30;0.30;;;;;;;;;;5039970;28;20267;-74
2023/12/02 07:04:06;;;;;;;0.30;0.30;;;;;;;;;;5059281;28;20227;-73
2023/12/02 07:06:33;;;;;;;0.30;0.30;;;;;;;;;;5040824;28;20277;-74
2023/12/02 07:08:59;;;;;;;0.30;0.30;;;;;;;;;;5058229;28;20206;-73
2023/12/02 07:11:26;;;;;;;0.30;0.30;;;;;;;;;;5041725;28;20240;-73
2023/12/02 07:13:54;;;;;;;0.30;0.30;;;;;;;;;;5057442;28;20253;-73
2023/12/02 07:16:20;;;;;;;0.40;0.40;;;;;;;;;;5042376;28;20241;-73
2023/12/02 07:18:46;;;;;;;0.30;0.30;;;;;;;;;;5056545;28;20206;-73
2023/12/02 07:21:13;;;;;;;0.30;0.30;;;;;;;;;;5043474;28;20315;-73
2023/12/02 07:23:39;;;;;;;0.30;0.30;;;;;;;;;;5055167;28;20276;-73
2023/12/02 07:26:06;;;;;;;0.33;0.33;;;;;;;;;;5044446;28;20305;-73
2023/12/02 07:28:32;;;;;;;0.40;0.40;;;;;;;;;;5054102;28;20297;-73
2023/12/02 07:31:00;;;;;;;0.30;0.30;;;;;;;;;;5045512;28;20252;-73
2023/12/02 07:33:26;;;;;;;0.30;0.30;;;;;;;;;;5053220;28;20556;-73
2023/12/02 07:35:52;;;;;;;0.30;0.30;;;;;;;;;;5046414;28;20253;-73
2023/12/02 07:38:19;;;;;;;0.30;0.30;;;;;;;;;;5052171;28;20271;-73
2023/12/02 07:40:45;;;;;;;0.30;0.30;;;;;;;;;;5047729;28;20242;-74
2023/12/02 07:43:12;;;;;;;0.30;0.30;;;;;;;;;;5051054;28;20481;-74
2023/12/02 07:45:38;;;;;;;0.30;0.30;;;;;;;;;;5048466;28;20262;-74
2023/12/02 07:48:07;;;;;;;0.30;0.30;;;;;;;;;;5049543;28;20234;-74
2023/12/02 07:50:34;;;;;;;0.30;0.30;;;;;;;;;;5049110;28;20287;-72
2023/12/02 07:53:00;;;;;;;0.30;0.30;;;;;;;;;;5049138;28;20203;-73
2023/12/02 07:55:26;;;;;;;0.30;0.30;;;;;;;;;;5050517;28;20251;-73
2023/12/02 07:57:53;;;;;;;0.30;0.30;;;;;;;;;;5048226;28;20380;-74
2023/12/02 08:00:19;;;;;;;0.30;0.30;;;;;;;;;;5051660;28;20201;-74
2023/12/02 08:02:46;;;;;;;0.30;0.30;;;;;;;;;;5046857;28;20392;-74
2023/12/02 08:05:13;;;;;;;0.30;0.30;;;;;;;;;;5052730;28;20233;-74
2023/12/02 08:07:41;;;;;;;0.30;0.30;;;;;;;;;;5045784;28;20260;-74
2023/12/02 08:10:07;;;;;;;0.30;0.30;;;;;;;;;;5063126;28;20228;-73
2023/12/02 08:12:34;;;;;;;0.30;0.30;;;;;;;;;;5034818;28;20240;-73
2023/12/02 08:15:01;;;;;;;0.30;0.30;;;;;;;;;;5063174;28;20231;-73
2023/12/02 08:17:28;;;;;;;0.30;0.30;;;;;;;;;;5038283;28;20250;-74
2023/12/02 08:19:55;;;;;;;0.30;0.30;;;;;;;;;;5066633;28;20214;-74
2023/12/02 08:22:24;;;;;;;0.30;0.30;;;;;;;;;;5038336;28;20250;-74
2023/12/02 08:24:50;;;;;;;0.30;0.30;;;;;;;;;;5066649;28;20282;-74
2023/12/02 08:27:17;;;;;;;0.37;0.37;;;;;;;;;;5038210;28;20269;-75
2023/12/02 08:29:43;;;;;;;0.30;0.30;;;;;;;;;;5066462;28;20275;-74
2023/12/02 08:32:09;;;;;;;0.30;0.30;;;;;;;;;;5037906;28;20304;-74
2023/12/02 08:34:36;;;;;;;0.30;0.30;;;;;;;;;;5066484;28;20233;-74
2023/12/02 08:37:02;;;;;;;0.30;0.30;;;;;;;;;;5039173;28;20574;-74
2023/12/02 08:39:30;;;;;;;0.30;0.30;;;;;;;;;;5065330;28;20295;-75
2023/12/02 08:41:56;;;;;;;0.30;0.30;;;;;;;;;;5039968;28;20298;-76
2023/12/02 08:44:23;;;;;;;0.30;0.30;;;;;;;;;;5064687;28;20213;-75
2023/12/02 08:46:50;;;;;;;0.30;0.30;;;;;;;;;;5040732;28;20242;-75
2023/12/02 08:49:16;;;;;;;0.30;0.30;;;;;;;;;;5063597;28;20281;-72
2023/12/02 08:51:43;;;;;;;0.30;0.30;;;;;;;;;;5041809;28;20467;-75
2023/12/02 08:54:08;;;;;;;0.30;0.30;;;;;;;;;;5062297;28;20220;-81
2023/12/02 08:56:36;;;;;;;0.30;0.30;;;;;;;;;;5043164;28;20242;-77
2023/12/02 08:59:02;;;;;;;0.30;0.30;;;;;;;;;;5061162;28;20217;-79
2023/12/02 09:01:30;;;;;;;0.40;0.40;;;;;;;;;;5043485;28;20251;-75
2023/12/02 09:03:56;;;;;;;0.30;0.30;;;;;;;;;;5060049;28;20331;-75
2023/12/02 09:06:23;;;;;;;0.30;0.30;;;;;;;;;;5044084;28;20246;-74
2023/12/02 09:08:49;;;;;;;0.30;0.30;;;;;;;;;;5058911;28;20206;-75
2023/12/02 09:11:15;;;;;;;0.30;0.30;;;;;;;;;;5045335;28;20501;-75
2023/12/02 09:13:46;;;;;;;0.30;0.30;;;;;;;;;;5057925;28;20271;-74
2023/12/02 09:16:14;;;;;;;0.30;0.30;;;;;;;;;;5045587;28;20245;-75
2023/12/02 09:18:40;;;;;;;0.30;0.30;;;;;;;;;;5057601;28;20208;-76
2023/12/02 09:21:23;;;;;;;0.30;0.30;;;;;;;;;;5046670;28;20348;-75
2023/12/02 09:23:50;;;;;;;0.30;0.30;;;;;;;;;;5058678;28;20197;-79
2023/12/02 09:26:24;;;;;;;0.30;0.30;;;;;;;;;;5045056;28;20250;-78
2023/12/02 09:28:54;;;;;;;0.30;0.30;;;;;;;;;;5058458;28;20211;-77
2023/12/02 09:31:20;;;;;;;0.30;0.30;;;;;;;;;;5044310;28;20288;-77
2023/12/02 09:33:49;;;;;;;0.30;0.30;;;;;;;;;;5058037;28;20232;-78
2023/12/02 09:36:26;;;;;;;0.30;0.30;;;;;;;;;;5045018;28;20251;-79
2023/12/02 09:38:53;;;;;;;0.30;0.30;;;;;;;;;;5058772;28;20209;-77
2023/12/02 09:41:31;;;;;;;0.30;0.30;;;;;;;;;;5044246;28;20242;-76
2023/12/02 09:44:09;;;;;;;0.30;0.30;;;;;;;;;;5059635;28;20366;-77
2023/12/02 09:46:38;;;;;;;0.30;0.30;;;;;;;;;;5041994;28;20246;-77
2023/12/02 09:49:23;;;;;;;0.30;0.30;;;;;;;;;;5060351;28;20233;-77
2023/12/02 09:52:07;;;;;;;0.30;0.30;;;;;;;;;;5039629;28;20255;-79
2023/12/02 09:54:38;;;;;;;0.30;0.30;;;;;;;;;;5051599;28;20270;-79
2023/12/02 09:57:08;;;;;;;0.30;0.30;;;;;;;;;;5037340;28;20250;-78
2023/12/02 09:59:40;;;;;;;0.30;0.30;;;;;;;;;;5064592;28;20205;-78
2023/12/02 10:02:14;;;;;;;0.30;0.30;;;;;;;;;;5036931;28;20246;-78
2023/12/02 10:04:47;;;;;;;0.30;0.30;;;;;;;;;;5064650;28;20508;-81
2023/12/02 10:07:23;;;;;;;0.30;0.30;;;;;;;;;;5037097;28;20240;-81
2023/12/02 10:09:53;;;;;;;0.30;0.30;;;;;;;;;;5065029;28;20229;-81
2023/12/02 10:12:33;;;;;;;0.30;0.30;;;;;;;;;;5036419;28;20441;-79
2023/12/02 10:15:05;;;;;;;0.30;0.30;;;;;;;;;;5064402;28;20226;-78
2023/12/02 10:17:32;;;;;;;0.30;0.30;;;;;;;;;;5036489;28;20295;-78
2023/12/02 10:20:04;;;;;;;0.30;0.30;;;;;;;;;;5064525;28;20237;-78
2023/12/02 10:22:34;;;;;;;0.33;0.33;;;;;;;;;;5036126;28;20296;-78
2023/12/02 10:25:01;;;;;;;0.30;0.30;;;;;;;;;;5064118;28;20200;-78
2023/12/02 10:27:29;;;;;;;0.30;0.30;;;;;;;;;;5036056;28;20569;-77
2023/12/02 10:30:01;;;;;;;0.30;0.30;;;;;;;;;;5064479;28;20205;-77
2023/12/02 10:32:33;;;;;;;0.30;0.30;;;;;;;;;;5035907;28;20299;-77
2023/12/02 10:35:03;;;;;;;0.30;0.30;;;;;;;;;;5064469;28;20246;-77
2023/12/02 10:37:33;;;;;;;0.30;0.30;;;;;;;;;;5035917;28;20307;-77
2023/12/02 10:40:02;;;;;;;0.30;0.30;;;;;;;;;;5063704;28;20300;-77
2023/12/02 10:42:30;;;;;;;0.30;0.30;;;;;;;;;;5035890;28;20504;-76
2023/12/02 10:45:04;;;;;;;0.30;0.30;;;;;;;;;;5064269;28;20203;-77
2023/12/02 10:47:32;;;;;;;0.30;0.30;;;;;;;;;;5035771;28;20251;-77
2023/12/02 10:50:00;;;;;;;0.30;0.30;;;;;;;;;;5063932;28;20272;-77
2023/12/02 10:52:27;;;;;;;0.30;0.30;;;;;;;;;;5035642;28;20233;-77
2023/12/02 10:54:54;;;;;;;0.30;0.30;;;;;;;;;;5064087;28;20206;-76
2023/12/02 10:57:21;;;;;;;0.30;0.30;;;;;;;;;;5035683;28;20243;-77
2023/12/02 10:59:50;;;;;;;0.30;0.30;;;;;;;;;;5064024;28;20230;-78
2023/12/02 11:02:27;;;;;;;0.30;0.30;;;;;;;;;;5035593;28;20292;-78
2023/12/02 11:05:03;;;;;;;0.30;0.30;;;;;;;;;;5064022;28;20207;-77
2023/12/02 11:07:31;;;;;;;0.40;0.40;;;;;;;;;;5035769;28;20299;-78
2023/12/02 11:10:02;;;;;;;0.30;0.30;;;;;;;;;;5063893;28;20234;-76
2023/12/02 11:12:32;;;;;;;0.33;0.33;;;;;;;;;;5035641;28;20478;-77
2023/12/02 11:15:03;;;;;;;0.30;0.30;;;;;;;;;;5063831;28;20204;-77
2023/12/02 11:17:36;;;;;;;0.30;0.30;;;;;;;;;;5035650;28;20241;-78
2023/12/02 11:20:08;;;;;;;0.30;0.30;;;;;;;;;;5063859;28;20231;-77
2023/12/02 11:22:45;;;;;;;0.30;0.30;;;;;;;;;;5035358;28;20204;-77
2023/12/02 11:25:29;;;;;;;0.30;0.30;;;;;;;;;;5053075;28;20218;-76
2023/12/02 11:28:00;;;;;;;0.30;0.30;;;;;;;;;;5049188;28;20357;-77
2023/12/02 11:30:34;;;;;;;0.30;0.30;;;;;;;;;;5050926;28;20272;-77
2023/12/02 11:33:05;;;;;;;0.30;0.30;;;;;;;;;;5049210;28;20262;-77
2023/12/02 11:35:36;;;;;;;0.30;0.30;;;;;;;;;;5050098;28;20259;-77
2023/12/02 11:38:07;;;;;;;0.30;0.30;;;;;;;;;;5049794;28;20226;-77
2023/12/02 11:40:40;;;;;;;0.30;0.30;;;;;;;;;;5049721;28;20238;-78
2023/12/02 11:43:11;;;;;;;0.30;0.30;;;;;;;;;;5050308;28;20194;-79
2023/12/02 11:45:39;;;;;;;0.30;0.30;;;;;;;;;;5049121;28;20247;-77
2023/12/02 11:48:12;;;;;;;0.30;0.30;;;;;;;;;;5050126;28;20258;-77
2023/12/02 11:50:46;;;;;;;0.30;0.30;;;;;;;;;;5049435;28;20259;-78
2023/12/02 11:53:17;;;;;;;0.30;0.30;;;;;;;;;;5054598;28;20297;-77
2023/12/02 11:55:50;;;;;;;0.30;0.30;;;;;;;;;;5051501;28;20318;-78
2023/12/02 11:58:22;;;;;;;0.30;0.30;;;;;;;;;;5055625;28;20430;-78
2023/12/02 12:00:54;;;;;;;0.30;0.30;;;;;;;;;;5051767;28;20321;-76
2023/12/02 12:03:27;;;;;;;0.30;0.30;;;;;;;;;;5054986;28;20248;-77
2023/12/02 12:06:00;;;;;;;0.30;0.30;;;;;;;;;;5050178;28;20286;-77
2023/12/02 12:08:29;;;;;;;0.30;0.30;;;;;;;;;;5056462;28;20224;-77
2023/12/02 12:10:56;;;;;;;0.30;0.30;;;;;;;;;;5049340;28;20253;-77
2023/12/02 12:13:25;;;;;;;0.30;0.30;;;;;;;;;;5056388;28;20232;-77
2023/12/02 12:15:51;;;;;;;0.30;0.30;;;;;;;;;;5050374;28;20488;-78
2023/12/02 12:18:18;;;;;;;0.30;0.30;;;;;;;;;;5054928;28;20453;-78
2023/12/02 12:20:44;;;;;;;0.30;0.30;;;;;;;;;;5050982;28;20246;-78
2023/12/02 12:23:12;;;;;;;0.30;0.30;;;;;;;;;;5054202;28;20188;-78
2023/12/02 12:25:39;;;;;;;0.30;0.30;;;;;;;;;;5052047;28;20473;-78
2023/12/02 12:28:06;;;;;;;0.30;0.30;;;;;;;;;;5053001;28;20194;-78
2023/12/02 12:30:42;;;;;;;0.30;0.30;;;;;;;;;;5052854;28;20241;-79
2023/12/02 12:33:10;;;;;;;0.30;0.30;;;;;;;;;;5053724;28;20285;-79
2023/12/02 12:35:36;;;;;;;0.30;0.30;;;;;;;;;;5052304;28;20257;-79
2023/12/02 12:38:03;;;;;;;0.30;0.30;;;;;;;;;;5052581;28;20250;-79
2023/12/02 12:40:32;;;;;;;0.30;0.30;;;;;;;;;;5053089;28;20303;-78
2023/12/02 12:42:59;;;;;;;0.30;0.30;;;;;;;;;;5052122;28;20191;-78
2023/12/02 12:45:26;;;;;;;0.30;0.30;;;;;;;;;;5053173;28;20202;-78
2023/12/02 12:47:54;;;;;;;0.30;0.30;;;;;;;;;;5051412;28;20220;-79
2023/12/02 12:50:22;;;;;;;0.30;0.30;;;;;;;;;;5054348;28;20210;-79
2023/12/02 12:52:50;;;;;;;0.30;0.30;;;;;;;;;;5050570;28;20421;-79
2023/12/02 12:55:18;;;;;;;0.30;0.30;;;;;;;;;;5054740;28;20372;-77
2023/12/02 12:57:52;;;;;;;0.30;0.30;;;;;;;;;;5050030;28;20228;-77
2023/12/02 13:00:18;;;;;;;0.30;0.30;;;;;;;;;;5054556;28;20211;-78
2023/12/02 13:02:55;;;;;;;0.30;0.30;;;;;;;;;;5048766;28;20210;-77
2023/12/02 13:05:22;;;;;;;0.30;0.30;;;;;;;;;;5053949;28;20246;-78
2023/12/02 13:07:49;;;;;;;0.40;0.40;;;;;;;;;;5050437;28;20226;-78
2023/12/02 13:10:16;;;;;;;0.30;0.30;;;;;;;;;;5054089;28;20208;-77
2023/12/02 13:12:43;;;;;;;0.30;0.30;;;;;;;;;;5048906;28;20289;-77
2023/12/02 13:15:11;;;;;;;0.30;0.30;;;;;;;;;;5058654;28;20246;-78
2023/12/02 13:17:39;;;;;;;0.30;0.30;;;;;;;;;;5047985;28;20223;-77
2023/12/02 13:20:07;;;;;;;0.30;0.30;;;;;;;;;;5065634;28;20228;-76
2023/12/02 13:22:34;;;;;;;0.30;0.30;;;;;;;;;;5037167;28;20205;-77
2023/12/02 13:25:04;;;;;;;0.30;0.30;;;;;;;;;;5065595;28;20213;-77
2023/12/02 13:27:34;;;;;;;0.30;0.30;;;;;;;;;;5037167;28;20255;-77
2023/12/02 13:30:03;;;;;;;0.30;0.30;;;;;;;;;;5065362;28;20206;-77
2023/12/02 13:32:34;;;;;;;0.30;0.30;;;;;;;;;;5037094;28;20315;-77
2023/12/02 13:35:04;;;;;;;0.30;0.30;;;;;;;;;;5065047;28;20248;-77
2023/12/02 13:37:37;;;;;;;0.37;0.37;;;;;;;;;;5037144;28;20249;-77
2023/12/02 13:40:04;;;;;;;0.30;0.30;;;;;;;;;;5065438;28;20235;-77
2023/12/02 13:42:35;;;;;;;0.30;0.30;;;;;;;;;;5036938;28;20241;-77
2023/12/02 13:45:05;;;;;;;0.40;0.40;;;;;;;;;;5065439;28;20227;-77
2023/12/02 13:47:38;;;;;;;0.30;0.30;;;;;;;;;;5036803;28;20250;-77
2023/12/02 13:50:05;;;;;;;0.30;0.30;;;;;;;;;;5065194;28;20280;-77
2023/12/02 13:52:39;;;;;;;0.30;0.30;;;;;;;;;;5036780;28;20237;-77
2023/12/02 13:55:12;;;;;;;0.30;0.30;;;;;;;;;;5065120;28;20212;-77
2023/12/02 13:57:42;;;;;;;0.30;0.30;;;;;;;;;;5036852;28;20510;-77
2023/12/02 14:00:11;;;;;;;0.30;0.30;;;;;;;;;;5064858;28;20204;-77
2023/12/02 14:02:47;;;;;;;0.30;0.30;;;;;;;;;;5036628;28;20284;-78
2023/12/02 14:05:15;;;;;;;0.30;0.30;;;;;;;;;;5054079;28;20219;-77
2023/12/02 14:07:44;;;;;;;0.30;0.30;;;;;;;;;;5047791;28;20187;-77
2023/12/02 14:10:14;;;;;;;0.30;0.30;;;;;;;;;;5054225;28;20428;-79
2023/12/02 14:12:50;;;;;;;0.30;0.30;;;;;;;;;;5047144;28;20250;-77
2023/12/02 14:15:31;;;;;;;0.30;0.30;;;;;;;;;;5052938;28;20208;-77
2023/12/02 14:18:05;;;;;;;0.30;0.30;;;;;;;;;;5007824;28;20247;-77
2023/12/02 14:20:37;;;;;;;0.30;0.30;;;;;;;;;;5051031;28;20470;-78
2023/12/02 14:23:15;;;;;;;0.30;0.30;;;;;;;;;;5050776;28;20443;-77
2023/12/02 14:25:49;;;;;;;0.30;0.30;;;;;;;;;;5048967;28;20484;-77
2023/12/02 14:28:23;;;;;;;0.30;0.30;;;;;;;;;;5052195;28;20235;-77
2023/12/02 14:31:05;;;;;;;0.30;0.30;;;;;;;;;;5047798;28;20241;-77
2023/12/02 14:33:40;;;;;;;0.30;0.30;;;;;;;;;;5054591;28;20326;-76
2023/12/02 14:36:09;;;;;;;0.40;0.40;;;;;;;;;;5045200;28;20242;-77
2023/12/02 14:38:46;;;;;;;0.30;0.30;;;;;;;;;;5055165;28;20522;-77
2023/12/02 14:41:20;;;;;;;0.30;0.30;;;;;;;;;;5044126;28;20265;-77
2023/12/02 14:43:52;;;;;;;0.30;0.30;;;;;;;;;;5057037;28;20373;-77
2023/12/02 14:46:21;;;;;;;0.30;0.30;;;;;;;;;;5043220;28;20501;-77
2023/12/02 14:48:48;;;;;;;0.30;0.30;;;;;;;;;;5056854;28;20284;-78